Terminal Aerodrome Forecast
Issued by NWS Mt. Holly, NJ

Home | Current Version | Previous Version | Text Only | Print | Product List | Glossary On
Versions: 1 2 3 4 5 6 7 8 9 10 11 12 13 14 15 16 17 18 19 20 21 22 23 24 25 26 27 28 29 30 31 32
997
FTUS41 KPHI 262108 AAB
TAFPHL
TAF AMD
KPHL 262108Z 2621/2724 12006KT P6SM SCT035 SCT070
     FM270100 16004KT P6SM FEW040 SCT110
     FM270700 VRB03KT P6SM BKN250
     FM271000 19005KT P6SM SCT025 BKN050
     FM271500 20005KT P6SM BKN025 BKN040
     FM272000 21006KT P6SM SCT025 BKN050=

USA.gov is the U.S. government's official web portal to all federal, state and local government web resources and services.